sensor_id;sensor_type;location;lat;lon;timestamp;P1;durP1;ratioP1;P2;durP2;ratioP2
10148;SDS011;5115;50.920;6.376;2022-08-24T00:02:21;0.40;;;0.40;;
10148;SDS011;5115;50.920;6.376;2022-08-24T00:04:47;0.40;;;0.40;;
10148;SDS011;5115;50.920;6.376;2022-08-24T00:07:12;0.40;;;0.40;;
10148;SDS011;5115;50.920;6.376;2022-08-24T00:09:39;0.40;;;0.40;;
10148;SDS011;5115;50.920;6.376;2022-08-24T00:12:05;0.50;;;0.50;;
10148;SDS011;5115;50.920;6.376;2022-08-24T00:14:31;0.40;;;0.40;;
10148;SDS011;5115;50.920;6.376;2022-08-24T00:16:57;0.40;;;0.40;;
10148;SDS011;5115;50.920;6.376;2022-08-24T00:19:23;0.40;;;0.40;;
10148;SDS011;5115;50.920;6.376;2022-08-24T00:21:49;0.40;;;0.40;;
10148;SDS011;5115;50.920;6.376;2022-08-24T00:24:16;0.40;;;0.40;;
10148;SDS011;5115;50.920;6.376;2022-08-24T00:26:42;0.40;;;0.40;;
10148;SDS011;5115;50.920;6.376;2022-08-24T00:29:09;0.50;;;0.50;;
10148;SDS011;5115;50.920;6.376;2022-08-24T00:31:37;0.40;;;0.40;;
10148;SDS011;5115;50.920;6.376;2022-08-24T00:34:03;0.40;;;0.40;;
10148;SDS011;5115;50.920;6.376;2022-08-24T00:36:28;0.40;;;0.40;;
10148;SDS011;5115;50.920;6.376;2022-08-24T00:38:54;0.40;;;0.40;;
10148;SDS011;5115;50.920;6.376;2022-08-24T00:41:20;0.40;;;0.40;;
10148;SDS011;5115;50.920;6.376;2022-08-24T00:44:02;0.40;;;0.40;;
10148;SDS011;5115;50.920;6.376;2022-08-24T00:46:36;0.40;;;0.40;;
10148;SDS011;5115;50.920;6.376;2022-08-24T00:49:13;0.50;;;0.50;;
10148;SDS011;5115;50.920;6.376;2022-08-24T00:54:31;0.40;;;0.40;;
10148;SDS011;5115;50.920;6.376;2022-08-24T00:57:00;0.40;;;0.40;;
10148;SDS011;5115;50.920;6.376;2022-08-24T00:59:30;0.40;;;0.40;;
10148;SDS011;5115;50.920;6.376;2022-08-24T01:02:02;0.40;;;0.40;;
10148;SDS011;5115;50.920;6.376;2022-08-24T01:04:38;0.40;;;0.40;;
10148;SDS011;5115;50.920;6.376;2022-08-24T01:07:09;0.40;;;0.40;;
10148;SDS011;5115;50.920;6.376;2022-08-24T01:09:34;0.40;;;0.40;;
10148;SDS011;5115;50.920;6.376;2022-08-24T01:12:00;0.40;;;0.40;;
10148;SDS011;5115;50.920;6.376;2022-08-24T01:14:26;0.50;;;0.50;;
10148;SDS011;5115;50.920;6.376;2022-08-24T01:16:51;0.50;;;0.50;;
10148;SDS011;5115;50.920;6.376;2022-08-24T01:19:37;0.40;;;0.40;;
10148;SDS011;5115;50.920;6.376;2022-08-24T01:25:22;0.50;;;0.50;;
10148;SDS011;5115;50.920;6.376;2022-08-24T01:27:50;0.40;;;0.40;;
10148;SDS011;5115;50.920;6.376;2022-08-24T01:30:18;0.40;;;0.40;;
10148;SDS011;5115;50.920;6.376;2022-08-24T01:32:51;0.40;;;0.40;;
10148;SDS011;5115;50.920;6.376;2022-08-24T01:35:22;0.40;;;0.40;;
10148;SDS011;5115;50.920;6.376;2022-08-24T01:37:48;0.40;;;0.40;;
10148;SDS011;5115;50.920;6.376;2022-08-24T01:40:15;0.40;;;0.40;;
10148;SDS011;5115;50.920;6.376;2022-08-24T01:42:46;0.40;;;0.40;;
10148;SDS011;5115;50.920;6.376;2022-08-24T01:45:18;0.40;;;0.40;;
10148;SDS011;5115;50.920;6.376;2022-08-24T01:47:44;0.50;;;0.50;;
10148;SDS011;5115;50.920;6.376;2022-08-24T01:50:10;0.40;;;0.40;;
10148;SDS011;5115;50.920;6.376;2022-08-24T01:52:37;0.40;;;0.40;;
10148;SDS011;5115;50.920;6.376;2022-08-24T01:55:06;0.40;;;0.40;;
10148;SDS011;5115;50.920;6.376;2022-08-24T01:57:33;0.40;;;0.40;;
10148;SDS011;5115;50.920;6.376;2022-08-24T01:59:59;0.40;;;0.40;;
10148;SDS011;5115;50.920;6.376;2022-08-24T02:02:26;0.50;;;0.50;;
10148;SDS011;5115;50.920;6.376;2022-08-24T02:04:54;0.40;;;0.40;;
10148;SDS011;5115;50.920;6.376;2022-08-24T02:07:20;0.40;;;0.40;;
10148;SDS011;5115;50.920;6.376;2022-08-24T02:09:45;0.40;;;0.40;;
10148;SDS011;5115;50.920;6.376;2022-08-24T02:12:11;0.40;;;0.40;;
10148;SDS011;5115;50.920;6.376;2022-08-24T02:14:37;0.40;;;0.40;;
10148;SDS011;5115;50.920;6.376;2022-08-24T02:17:04;0.40;;;0.40;;
10148;SDS011;5115;50.920;6.376;2022-08-24T02:19:30;0.40;;;0.40;;
10148;SDS011;5115;50.920;6.376;2022-08-24T02:21:56;0.40;;;0.40;;
10148;SDS011;5115;50.920;6.376;2022-08-24T02:24:24;0.40;;;0.40;;
10148;SDS011;5115;50.920;6.376;2022-08-24T02:26:50;0.40;;;0.40;;
10148;SDS011;5115;50.920;6.376;2022-08-24T02:29:16;0.40;;;0.40;;
10148;SDS011;5115;50.920;6.376;2022-08-24T02:31:41;0.40;;;0.40;;
10148;SDS011;5115;50.920;6.376;2022-08-24T02:34:07;0.40;;;0.40;;
10148;SDS011;5115;50.920;6.376;2022-08-24T02:36:33;0.40;;;0.40;;
10148;SDS011;5115;50.920;6.376;2022-08-24T02:38:59;0.40;;;0.40;;
10148;SDS011;5115;50.920;6.376;2022-08-24T02:41:25;0.40;;;0.40;;
10148;SDS011;5115;50.920;6.376;2022-08-24T02:43:53;0.40;;;0.40;;
10148;SDS011;5115;50.920;6.376;2022-08-24T02:46:20;0.40;;;0.40;;
10148;SDS011;5115;50.920;6.376;2022-08-24T02:48:49;0.40;;;0.40;;
10148;SDS011;5115;50.920;6.376;2022-08-24T02:51:23;0.40;;;0.40;;
10148;SDS011;5115;50.920;6.376;2022-08-24T02:53:51;0.40;;;0.40;;
10148;SDS011;5115;50.920;6.376;2022-08-24T02:56:17;0.40;;;0.40;;
10148;SDS011;5115;50.920;6.376;2022-08-24T02:58:44;0.40;;;0.40;;
10148;SDS011;5115;50.920;6.376;2022-08-24T03:01:11;0.40;;;0.40;;
10148;SDS011;5115;50.920;6.376;2022-08-24T03:03:38;0.40;;;0.40;;
10148;SDS011;5115;50.920;6.376;2022-08-24T03:06:04;0.40;;;0.40;;
10148;SDS011;5115;50.920;6.376;2022-08-24T03:08:30;0.40;;;0.40;;
10148;SDS011;5115;50.920;6.376;2022-08-24T03:10:56;0.40;;;0.40;;
10148;SDS011;5115;50.920;6.376;2022-08-24T03:13:24;0.40;;;0.40;;
10148;SDS011;5115;50.920;6.376;2022-08-24T03:15:51;0.40;;;0.40;;
10148;SDS011;5115;50.920;6.376;2022-08-24T03:18:17;0.40;;;0.40;;
10148;SDS011;5115;50.920;6.376;2022-08-24T03:20:43;0.40;;;0.40;;
10148;SDS011;5115;50.920;6.376;2022-08-24T03:23:08;0.40;;;0.40;;
10148;SDS011;5115;50.920;6.376;2022-08-24T03:25:34;0.40;;;0.40;;
10148;SDS011;5115;50.920;6.376;2022-08-24T03:28:00;0.40;;;0.40;;
10148;SDS011;5115;50.920;6.376;2022-08-24T03:30:26;0.40;;;0.40;;
10148;SDS011;5115;50.920;6.376;2022-08-24T03:32:52;0.40;;;0.40;;
10148;SDS011;5115;50.920;6.376;2022-08-24T03:35:18;0.40;;;0.40;;
10148;SDS011;5115;50.920;6.376;2022-08-24T03:37:46;0.40;;;0.40;;
10148;SDS011;5115;50.920;6.376;2022-08-24T03:40:13;0.40;;;0.40;;
10148;SDS011;5115;50.920;6.376;2022-08-24T03:42:39;0.40;;;0.40;;
10148;SDS011;5115;50.920;6.376;2022-08-24T03:45:04;0.40;;;0.40;;
10148;SDS011;5115;50.920;6.376;2022-08-24T03:47:31;0.40;;;0.40;;
10148;SDS011;5115;50.920;6.376;2022-08-24T03:49:56;0.40;;;0.40;;
10148;SDS011;5115;50.920;6.376;2022-08-24T03:52:22;0.40;;;0.40;;
10148;SDS011;5115;50.920;6.376;2022-08-24T03:54:47;0.40;;;0.40;;
10148;SDS011;5115;50.920;6.376;2022-08-24T03:57:13;0.40;;;0.40;;
10148;SDS011;5115;50.920;6.376;2022-08-24T03:59:39;0.40;;;0.40;;
10148;SDS011;5115;50.920;6.376;2022-08-24T04:02:05;0.40;;;0.40;;
10148;SDS011;5115;50.920;6.376;2022-08-24T04:04:31;0.40;;;0.40;;
10148;SDS011;5115;50.920;6.376;2022-08-24T04:06:57;0.40;;;0.40;;
10148;SDS011;5115;50.920;6.376;2022-08-24T04:09:23;0.40;;;0.40;;
10148;SDS011;5115;50.920;6.376;2022-08-24T04:11:49;0.40;;;0.40;;
10148;SDS011;5115;50.920;6.376;2022-08-24T04:14:15;0.40;;;0.40;;
10148;SDS011;5115;50.920;6.376;2022-08-24T04:16:41;0.40;;;0.40;;
10148;SDS011;5115;50.920;6.376;2022-08-24T04:19:07;0.40;;;0.40;;
10148;SDS011;5115;50.920;6.376;2022-08-24T04:21:34;0.40;;;0.40;;
10148;SDS011;5115;50.920;6.376;2022-08-24T04:24:01;0.40;;;0.40;;
10148;SDS011;5115;50.920;6.376;2022-08-24T04:26:29;0.40;;;0.40;;
10148;SDS011;5115;50.920;6.376;2022-08-24T04:28:55;0.40;;;0.40;;
10148;SDS011;5115;50.920;6.376;2022-08-24T04:31:21;0.40;;;0.40;;
10148;SDS011;5115;50.920;6.376;2022-08-24T04:33:48;0.40;;;0.40;;
10148;SDS011;5115;50.920;6.376;2022-08-24T04:36:15;0.40;;;0.40;;
10148;SDS011;5115;50.920;6.376;2022-08-24T04:38:42;0.40;;;0.40;;
10148;SDS011;5115;50.920;6.376;2022-08-24T04:41:11;0.40;;;0.40;;
10148;SDS011;5115;50.920;6.376;2022-08-24T04:43:44;0.40;;;0.40;;
10148;SDS011;5115;50.920;6.376;2022-08-24T04:46:11;0.40;;;0.40;;
10148;SDS011;5115;50.920;6.376;2022-08-24T04:48:39;0.40;;;0.40;;
10148;SDS011;5115;50.920;6.376;2022-08-24T04:51:06;0.40;;;0.40;;
10148;SDS011;5115;50.920;6.376;2022-08-24T04:53:34;0.40;;;0.40;;
10148;SDS011;5115;50.920;6.376;2022-08-24T04:56:00;0.40;;;0.40;;
10148;SDS011;5115;50.920;6.376;2022-08-24T04:58:27;0.40;;;0.40;;
10148;SDS011;5115;50.920;6.376;2022-08-24T05:00:54;0.40;;;0.40;;
10148;SDS011;5115;50.920;6.376;2022-08-24T05:03:20;0.40;;;0.40;;
10148;SDS011;5115;50.920;6.376;2022-08-24T05:05:47;0.40;;;0.40;;
10148;SDS011;5115;50.920;6.376;2022-08-24T05:08:15;0.40;;;0.40;;
10148;SDS011;5115;50.920;6.376;2022-08-24T05:10:43;0.40;;;0.40;;
10148;SDS011;5115;50.920;6.376;2022-08-24T05:13:10;0.40;;;0.40;;
10148;SDS011;5115;50.920;6.376;2022-08-24T05:15:39;0.40;;;0.40;;
10148;SDS011;5115;50.920;6.376;2022-08-24T05:18:07;0.40;;;0.40;;
10148;SDS011;5115;50.920;6.376;2022-08-24T05:20:32;0.40;;;0.40;;
10148;SDS011;5115;50.920;6.376;2022-08-24T05:22:59;0.40;;;0.40;;
10148;SDS011;5115;50.920;6.376;2022-08-24T05:25:25;0.40;;;0.40;;
10148;SDS011;5115;50.920;6.376;2022-08-24T05:27:51;0.40;;;0.40;;
10148;SDS011;5115;50.920;6.376;2022-08-24T05:30:16;0.40;;;0.40;;
10148;SDS011;5115;50.920;6.376;2022-08-24T05:32:42;0.40;;;0.40;;
10148;SDS011;5115;50.920;6.376;2022-08-24T05:35:08;0.40;;;0.40;;
10148;SDS011;5115;50.920;6.376;2022-08-24T05:37:34;0.40;;;0.40;;
10148;SDS011;5115;50.920;6.376;2022-08-24T05:40:01;0.40;;;0.40;;
10148;SDS011;5115;50.920;6.376;2022-08-24T05:42:27;0.47;;;0.47;;
10148;SDS011;5115;50.920;6.376;2022-08-24T05:44:53;0.50;;;0.50;;
10148;SDS011;5115;50.920;6.376;2022-08-24T05:47:18;0.40;;;0.40;;
10148;SDS011;5115;50.920;6.376;2022-08-24T05:49:44;0.50;;;0.50;;
10148;SDS011;5115;50.920;6.376;2022-08-24T05:52:10;0.40;;;0.40;;
10148;SDS011;5115;50.920;6.376;2022-08-24T05:54:36;0.40;;;0.40;;
10148;SDS011;5115;50.920;6.376;2022-08-24T05:57:01;0.40;;;0.40;;
10148;SDS011;5115;50.920;6.376;2022-08-24T05:59:29;0.40;;;0.40;;
10148;SDS011;5115;50.920;6.376;2022-08-24T06:01:55;0.40;;;0.40;;
10148;SDS011;5115;50.920;6.376;2022-08-24T06:04:21;0.50;;;0.50;;
10148;SDS011;5115;50.920;6.376;2022-08-24T06:06:46;0.50;;;0.50;;
10148;SDS011;5115;50.920;6.376;2022-08-24T06:09:12;0.50;;;0.50;;
10148;SDS011;5115;50.920;6.376;2022-08-24T06:11:38;0.50;;;0.50;;
10148;SDS011;5115;50.920;6.376;2022-08-24T06:14:08;0.50;;;0.50;;
10148;SDS011;5115;50.920;6.376;2022-08-24T06:16:37;0.50;;;0.50;;
10148;SDS011;5115;50.920;6.376;2022-08-24T06:19:05;0.50;;;0.50;;
10148;SDS011;5115;50.920;6.376;2022-08-24T06:21:32;0.47;;;0.47;;
10148;SDS011;5115;50.920;6.376;2022-08-24T06:23:58;0.50;;;0.50;;
10148;SDS011;5115;50.920;6.376;2022-08-24T06:26:24;0.50;;;0.50;;
10148;SDS011;5115;50.920;6.376;2022-08-24T06:29:10;0.50;;;0.50;;
10148;SDS011;5115;50.920;6.376;2022-08-24T06:31:37;0.50;;;0.50;;
10148;SDS011;5115;50.920;6.376;2022-08-24T06:34:05;0.40;;;0.40;;
10148;SDS011;5115;50.920;6.376;2022-08-24T06:36:31;0.50;;;0.50;;
10148;SDS011;5115;50.920;6.376;2022-08-24T06:38:57;0.50;;;0.50;;
10148;SDS011;5115;50.920;6.376;2022-08-24T06:41:23;0.50;;;0.50;;
10148;SDS011;5115;50.920;6.376;2022-08-24T06:43:49;0.50;;;0.50;;
10148;SDS011;5115;50.920;6.376;2022-08-24T06:46:15;0.50;;;0.50;;
10148;SDS011;5115;50.920;6.376;2022-08-24T06:48:41;0.40;;;0.40;;
10148;SDS011;5115;50.920;6.376;2022-08-24T06:51:07;0.50;;;0.50;;
10148;SDS011;5115;50.920;6.376;2022-08-24T06:53:34;0.50;;;0.50;;
10148;SDS011;5115;50.920;6.376;2022-08-24T06:56:00;0.50;;;0.50;;
10148;SDS011;5115;50.920;6.376;2022-08-24T06:58:25;0.50;;;0.50;;
10148;SDS011;5115;50.920;6.376;2022-08-24T07:00:55;0.45;;;0.45;;
10148;SDS011;5115;50.920;6.376;2022-08-24T07:03:21;0.50;;;0.50;;
10148;SDS011;5115;50.920;6.376;2022-08-24T07:05:55;0.50;;;0.50;;
10148;SDS011;5115;50.920;6.376;2022-08-24T07:08:21;0.50;;;0.50;;
10148;SDS011;5115;50.920;6.376;2022-08-24T07:10:48;0.50;;;0.50;;
10148;SDS011;5115;50.920;6.376;2022-08-24T07:13:14;0.50;;;0.50;;
10148;SDS011;5115;50.920;6.376;2022-08-24T07:15:40;0.50;;;0.50;;
10148;SDS011;5115;50.920;6.376;2022-08-24T07:18:06;0.50;;;0.50;;
10148;SDS011;5115;50.920;6.376;2022-08-24T07:20:35;0.50;;;0.50;;
10148;SDS011;5115;50.920;6.376;2022-08-24T07:23:02;0.50;;;0.50;;
10148;SDS011;5115;50.920;6.376;2022-08-24T07:25:31;0.50;;;0.50;;
10148;SDS011;5115;50.920;6.376;2022-08-24T07:27:58;0.50;;;0.50;;
10148;SDS011;5115;50.920;6.376;2022-08-24T07:30:27;0.50;;;0.50;;
10148;SDS011;5115;50.920;6.376;2022-08-24T07:32:53;0.50;;;0.50;;
10148;SDS011;5115;50.920;6.376;2022-08-24T07:35:20;0.40;;;0.40;;
10148;SDS011;5115;50.920;6.376;2022-08-24T07:37:46;0.50;;;0.50;;
10148;SDS011;5115;50.920;6.376;2022-08-24T07:40:12;0.50;;;0.50;;
10148;SDS011;5115;50.920;6.376;2022-08-24T07:42:37;0.50;;;0.50;;
10148;SDS011;5115;50.920;6.376;2022-08-24T07:45:06;0.50;;;0.50;;
10148;SDS011;5115;50.920;6.376;2022-08-24T07:47:32;0.40;;;0.40;;
10148;SDS011;5115;50.920;6.376;2022-08-24T07:49:58;0.43;;;0.43;;
10148;SDS011;5115;50.920;6.376;2022-08-24T07:52:24;0.50;;;0.50;;
10148;SDS011;5115;50.920;6.376;2022-08-24T07:54:49;0.50;;;0.50;;
10148;SDS011;5115;50.920;6.376;2022-08-24T07:57:15;0.50;;;0.50;;
10148;SDS011;5115;50.920;6.376;2022-08-24T07:59:40;0.50;;;0.50;;
10148;SDS011;5115;50.920;6.376;2022-08-24T08:02:06;0.50;;;0.50;;
10148;SDS011;5115;50.920;6.376;2022-08-24T08:04:33;0.50;;;0.50;;
10148;SDS011;5115;50.920;6.376;2022-08-24T08:06:59;0.50;;;0.50;;
10148;SDS011;5115;50.920;6.376;2022-08-24T08:09:27;0.60;;;0.60;;
10148;SDS011;5115;50.920;6.376;2022-08-24T08:11:53;0.50;;;0.50;;
10148;SDS011;5115;50.920;6.376;2022-08-24T08:14:18;0.50;;;0.50;;
10148;SDS011;5115;50.920;6.376;2022-08-24T08:16:44;0.50;;;0.50;;
10148;SDS011;5115;50.920;6.376;2022-08-24T08:19:10;0.50;;;0.50;;
10148;SDS011;5115;50.920;6.376;2022-08-24T08:21:46;0.50;;;0.50;;
10148;SDS011;5115;50.920;6.376;2022-08-24T08:24:32;0.50;;;0.50;;
10148;SDS011;5115;50.920;6.376;2022-08-24T08:26:59;0.50;;;0.50;;
10148;SDS011;5115;50.920;6.376;2022-08-24T08:29:25;0.50;;;0.50;;
10148;SDS011;5115;50.920;6.376;2022-08-24T08:31:52;0.50;;;0.50;;
10148;SDS011;5115;50.920;6.376;2022-08-24T08:34:18;0.57;;;0.57;;
10148;SDS011;5115;50.920;6.376;2022-08-24T08:36:44;0.50;;;0.50;;
10148;SDS011;5115;50.920;6.376;2022-08-24T08:39:11;0.52;;;0.52;;
10148;SDS011;5115;50.920;6.376;2022-08-24T08:52:52;0.50;;;0.50;;
10148;SDS011;5115;50.920;6.376;2022-08-24T08:58:09;0.50;;;0.50;;
10148;SDS011;5115;50.920;6.376;2022-08-24T09:00:58;0.60;;;0.60;;
10148;SDS011;5115;50.920;6.376;2022-08-24T09:15:12;0.50;;;0.50;;
10148;SDS011;5115;50.920;6.376;2022-08-24T09:29:17;0.50;;;0.50;;
10148;SDS011;5115;50.920;6.376;2022-08-24T09:31:53;0.52;;;0.52;;
10148;SDS011;5115;50.920;6.376;2022-08-24T09:34:46;0.50;;;0.50;;
10148;SDS011;5115;50.920;6.376;2022-08-24T09:51:04;0.50;;;0.50;;
10148;SDS011;5115;50.920;6.376;2022-08-24T09:56:55;0.50;;;0.50;;
10148;SDS011;5115;50.920;6.376;2022-08-24T10:02:57;0.50;;;0.50;;
10148;SDS011;5115;50.920;6.376;2022-08-24T10:11:44;0.50;;;0.50;;
10148;SDS011;5115;50.920;6.376;2022-08-24T10:14:18;0.50;;;0.50;;
10148;SDS011;5115;50.920;6.376;2022-08-24T10:24:59;0.50;;;0.50;;
10148;SDS011;5115;50.920;6.376;2022-08-24T10:30:17;0.50;;;0.50;;
10148;SDS011;5115;50.920;6.376;2022-08-24T10:48:31;0.50;;;0.50;;
10148;SDS011;5115;50.920;6.376;2022-08-24T10:53:47;0.50;;;0.50;;
10148;SDS011;5115;50.920;6.376;2022-08-24T10:56:16;0.50;;;0.50;;
10148;SDS011;5115;50.920;6.376;2022-08-24T11:01:31;0.50;;;0.50;;
10148;SDS011;5115;50.920;6.376;2022-08-24T11:04:11;0.50;;;0.50;;
10148;SDS011;5115;50.920;6.376;2022-08-24T11:09:47;0.60;;;0.60;;
10148;SDS011;5115;50.920;6.376;2022-08-24T11:14:49;0.40;;;0.40;;
10148;SDS011;5115;50.920;6.376;2022-08-24T11:17:19;0.50;;;0.50;;
10148;SDS011;5115;50.920;6.376;2022-08-24T11:19:46;0.50;;;0.50;;
10148;SDS011;5115;50.920;6.376;2022-08-24T11:22:27;0.52;;;0.52;;
10148;SDS011;5115;50.920;6.376;2022-08-24T11:25:03;0.50;;;0.50;;
10148;SDS011;5115;50.920;6.376;2022-08-24T11:27:38;0.55;;;0.55;;
10148;SDS011;5115;50.920;6.376;2022-08-24T11:32:57;0.50;;;0.50;;
10148;SDS011;5115;50.920;6.376;2022-08-24T11:38:08;0.40;;;0.40;;
10148;SDS011;5115;50.920;6.376;2022-08-24T11:40:41;0.40;;;0.40;;
10148;SDS011;5115;50.920;6.376;2022-08-24T11:48:33;0.50;;;0.50;;
10148;SDS011;5115;50.920;6.376;2022-08-24T11:51:28;0.50;;;0.50;;
10148;SDS011;5115;50.920;6.376;2022-08-24T12:02:21;0.50;;;0.50;;
10148;SDS011;5115;50.920;6.376;2022-08-24T12:15:59;0.50;;;0.50;;
10148;SDS011;5115;50.920;6.376;2022-08-24T12:18:38;0.50;;;0.50;;
10148;SDS011;5115;50.920;6.376;2022-08-24T12:21:14;0.50;;;0.50;;
10148;SDS011;5115;50.920;6.376;2022-08-24T12:23:44;0.50;;;0.50;;
10148;SDS011;5115;50.920;6.376;2022-08-24T12:26:18;0.50;;;0.50;;
10148;SDS011;5115;50.920;6.376;2022-08-24T12:31:51;0.45;;;0.45;;
10148;SDS011;5115;50.920;6.376;2022-08-24T12:34:23;0.47;;;0.47;;
10148;SDS011;5115;50.920;6.376;2022-08-24T12:36:55;0.40;;;0.40;;
10148;SDS011;5115;50.920;6.376;2022-08-24T12:39:41;0.40;;;0.40;;
10148;SDS011;5115;50.920;6.376;2022-08-24T12:45:10;0.50;;;0.50;;
10148;SDS011;5115;50.920;6.376;2022-08-24T12:50:15;0.47;;;0.47;;
10148;SDS011;5115;50.920;6.376;2022-08-24T13:01:11;0.50;;;0.50;;
10148;SDS011;5115;50.920;6.376;2022-08-24T13:03:40;0.40;;;0.40;;
10148;SDS011;5115;50.920;6.376;2022-08-24T13:06:18;0.50;;;0.50;;
10148;SDS011;5115;50.920;6.376;2022-08-24T13:08:51;0.50;;;0.50;;
10148;SDS011;5115;50.920;6.376;2022-08-24T13:11:31;0.50;;;0.50;;
10148;SDS011;5115;50.920;6.376;2022-08-24T13:21:51;0.50;;;0.50;;
10148;SDS011;5115;50.920;6.376;2022-08-24T13:24:39;0.40;;;0.40;;
10148;SDS011;5115;50.920;6.376;2022-08-24T13:29:35;0.50;;;0.50;;
10148;SDS011;5115;50.920;6.376;2022-08-24T13:32:13;0.43;;;0.43;;
10148;SDS011;5115;50.920;6.376;2022-08-24T13:34:45;0.50;;;0.50;;
10148;SDS011;5115;50.920;6.376;2022-08-24T13:37:19;0.50;;;0.50;;
10148;SDS011;5115;50.920;6.376;2022-08-24T13:50:29;0.50;;;0.50;;
10148;SDS011;5115;50.920;6.376;2022-08-24T13:59:07;0.50;;;0.50;;
10148;SDS011;5115;50.920;6.376;2022-08-24T14:01:57;0.50;;;0.50;;
10148;SDS011;5115;50.920;6.376;2022-08-24T14:18:09;0.50;;;0.50;;
10148;SDS011;5115;50.920;6.376;2022-08-24T14:23:28;0.50;;;0.50;;
10148;SDS011;5115;50.920;6.376;2022-08-24T14:26:59;0.50;;;0.50;;
10148;SDS011;5115;50.920;6.376;2022-08-24T14:31:39;0.50;;;0.50;;
10148;SDS011;5115;50.920;6.376;2022-08-24T14:42:20;0.40;;;0.40;;
10148;SDS011;5115;50.920;6.376;2022-08-24T14:50:23;0.40;;;0.40;;
10148;SDS011;5115;50.920;6.376;2022-08-24T14:58:33;0.40;;;0.40;;
10148;SDS011;5115;50.920;6.376;2022-08-24T15:04:02;0.50;;;0.50;;
10148;SDS011;5115;50.920;6.376;2022-08-24T15:09:26;0.50;;;0.50;;
10148;SDS011;5115;50.920;6.376;2022-08-24T15:12:09;0.40;;;0.40;;
10148;SDS011;5115;50.920;6.376;2022-08-24T15:15:05;0.50;;;0.50;;
10148;SDS011;5115;50.920;6.376;2022-08-24T15:23:12;0.50;;;0.50;;
10148;SDS011;5115;50.920;6.376;2022-08-24T15:25:57;0.50;;;0.50;;
10148;SDS011;5115;50.920;6.376;2022-08-24T15:28:32;0.50;;;0.50;;
10148;SDS011;5115;50.920;6.376;2022-08-24T15:30:59;0.50;;;0.50;;
10148;SDS011;5115;50.920;6.376;2022-08-24T15:33:31;0.50;;;0.50;;
10148;SDS011;5115;50.920;6.376;2022-08-24T15:36:10;0.50;;;0.50;;
10148;SDS011;5115;50.920;6.376;2022-08-24T15:38:38;0.50;;;0.50;;
10148;SDS011;5115;50.920;6.376;2022-08-24T15:41:06;0.50;;;0.50;;
10148;SDS011;5115;50.920;6.376;2022-08-24T15:43:35;0.50;;;0.50;;
10148;SDS011;5115;50.920;6.376;2022-08-24T15:46:07;0.50;;;0.50;;
10148;SDS011;5115;50.920;6.376;2022-08-24T15:48:33;0.55;;;0.55;;
10148;SDS011;5115;50.920;6.376;2022-08-24T15:50:59;0.50;;;0.50;;
10148;SDS011;5115;50.920;6.376;2022-08-24T15:53:27;0.50;;;0.50;;
10148;SDS011;5115;50.920;6.376;2022-08-24T15:56:10;0.50;;;0.50;;
10148;SDS011;5115;50.920;6.376;2022-08-24T15:58:44;0.50;;;0.50;;
10148;SDS011;5115;50.920;6.376;2022-08-24T16:03:59;0.50;;;0.50;;
10148;SDS011;5115;50.920;6.376;2022-08-24T16:12:01;0.40;;;0.40;;
10148;SDS011;5115;50.920;6.376;2022-08-24T16:14:34;0.50;;;0.50;;
10148;SDS011;5115;50.920;6.376;2022-08-24T16:19:57;0.50;;;0.50;;
10148;SDS011;5115;50.920;6.376;2022-08-24T16:22:27;0.50;;;0.50;;
10148;SDS011;5115;50.920;6.376;2022-08-24T16:25:42;0.50;;;0.50;;
10148;SDS011;5115;50.920;6.376;2022-08-24T16:27:54;0.50;;;0.50;;
10148;SDS011;5115;50.920;6.376;2022-08-24T16:30:26;0.57;;;0.57;;
10148;SDS011;5115;50.920;6.376;2022-08-24T16:33:00;0.50;;;0.50;;
10148;SDS011;5115;50.920;6.376;2022-08-24T16:35:26;0.60;;;0.60;;
10148;SDS011;5115;50.920;6.376;2022-08-24T16:37:52;0.50;;;0.50;;
10148;SDS011;5115;50.920;6.376;2022-08-24T16:40:21;0.50;;;0.50;;
10148;SDS011;5115;50.920;6.376;2022-08-24T16:42:47;0.50;;;0.50;;
10148;SDS011;5115;50.920;6.376;2022-08-24T16:45:15;0.50;;;0.50;;
10148;SDS011;5115;50.920;6.376;2022-08-24T16:47:43;0.50;;;0.50;;
10148;SDS011;5115;50.920;6.376;2022-08-24T16:50:10;0.50;;;0.50;;
10148;SDS011;5115;50.920;6.376;2022-08-24T16:52:37;0.50;;;0.50;;
10148;SDS011;5115;50.920;6.376;2022-08-24T16:55:02;0.50;;;0.50;;
10148;SDS011;5115;50.920;6.376;2022-08-24T16:57:29;0.50;;;0.50;;
10148;SDS011;5115;50.920;6.376;2022-08-24T16:59:56;0.47;;;0.47;;
10148;SDS011;5115;50.920;6.376;2022-08-24T17:02:22;0.50;;;0.50;;
10148;SDS011;5115;50.920;6.376;2022-08-24T17:04:49;0.50;;;0.50;;
10148;SDS011;5115;50.920;6.376;2022-08-24T17:07:16;0.50;;;0.50;;
10148;SDS011;5115;50.920;6.376;2022-08-24T17:09:48;0.50;;;0.50;;
10148;SDS011;5115;50.920;6.376;2022-08-24T17:12:14;0.50;;;0.50;;
10148;SDS011;5115;50.920;6.376;2022-08-24T17:14:40;0.50;;;0.50;;
10148;SDS011;5115;50.920;6.376;2022-08-24T17:17:07;0.50;;;0.50;;
10148;SDS011;5115;50.920;6.376;2022-08-24T17:19:37;0.50;;;0.50;;
10148;SDS011;5115;50.920;6.376;2022-08-24T17:22:03;0.50;;;0.50;;
10148;SDS011;5115;50.920;6.376;2022-08-24T17:24:30;0.40;;;0.40;;
10148;SDS011;5115;50.920;6.376;2022-08-24T17:26:56;0.57;;;0.57;;
10148;SDS011;5115;50.920;6.376;2022-08-24T17:29:22;0.50;;;0.50;;
10148;SDS011;5115;50.920;6.376;2022-08-24T17:31:49;0.50;;;0.50;;
10148;SDS011;5115;50.920;6.376;2022-08-24T17:34:14;0.50;;;0.50;;
10148;SDS011;5115;50.920;6.376;2022-08-24T17:36:42;0.50;;;0.50;;
10148;SDS011;5115;50.920;6.376;2022-08-24T17:39:09;0.50;;;0.50;;
10148;SDS011;5115;50.920;6.376;2022-08-24T17:41:36;0.43;;;0.43;;
10148;SDS011;5115;50.920;6.376;2022-08-24T17:44:02;0.50;;;0.50;;
10148;SDS011;5115;50.920;6.376;2022-08-24T17:46:28;0.50;;;0.50;;
10148;SDS011;5115;50.920;6.376;2022-08-24T17:48:55;0.40;;;0.40;;
10148;SDS011;5115;50.920;6.376;2022-08-24T17:51:21;0.50;;;0.50;;
10148;SDS011;5115;50.920;6.376;2022-08-24T17:53:47;0.50;;;0.50;;
10148;SDS011;5115;50.920;6.376;2022-08-24T17:56:12;0.50;;;0.50;;
10148;SDS011;5115;50.920;6.376;2022-08-24T17:58:40;0.50;;;0.50;;
10148;SDS011;5115;50.920;6.376;2022-08-24T18:01:28;0.50;;;0.50;;
10148;SDS011;5115;50.920;6.376;2022-08-24T18:03:54;0.50;;;0.50;;
10148;SDS011;5115;50.920;6.376;2022-08-24T18:06:20;0.50;;;0.50;;
10148;SDS011;5115;50.920;6.376;2022-08-24T18:08:47;0.50;;;0.50;;
10148;SDS011;5115;50.920;6.376;2022-08-24T18:11:15;0.50;;;0.50;;
10148;SDS011;5115;50.920;6.376;2022-08-24T18:13:40;0.50;;;0.50;;
10148;SDS011;5115;50.920;6.376;2022-08-24T18:16:11;0.50;;;0.50;;
10148;SDS011;5115;50.920;6.376;2022-08-24T18:18:40;0.50;;;0.50;;
10148;SDS011;5115;50.920;6.376;2022-08-24T18:21:06;0.50;;;0.50;;
10148;SDS011;5115;50.920;6.376;2022-08-24T18:23:32;0.50;;;0.50;;
10148;SDS011;5115;50.920;6.376;2022-08-24T18:25:58;0.50;;;0.50;;
10148;SDS011;5115;50.920;6.376;2022-08-24T18:28:23;0.50;;;0.50;;
10148;SDS011;5115;50.920;6.376;2022-08-24T18:30:49;0.50;;;0.50;;
10148;SDS011;5115;50.920;6.376;2022-08-24T18:33:15;0.50;;;0.50;;
10148;SDS011;5115;50.920;6.376;2022-08-24T18:35:41;0.50;;;0.50;;
10148;SDS011;5115;50.920;6.376;2022-08-24T18:38:07;0.50;;;0.50;;
10148;SDS011;5115;50.920;6.376;2022-08-24T18:40:32;0.50;;;0.50;;
10148;SDS011;5115;50.920;6.376;2022-08-24T18:42:58;0.50;;;0.50;;
10148;SDS011;5115;50.920;6.376;2022-08-24T18:45:25;0.50;;;0.50;;
10148;SDS011;5115;50.920;6.376;2022-08-24T18:47:55;0.50;;;0.50;;
10148;SDS011;5115;50.920;6.376;2022-08-24T18:50:20;0.43;;;0.43;;
10148;SDS011;5115;50.920;6.376;2022-08-24T18:52:46;0.43;;;0.43;;
10148;SDS011;5115;50.920;6.376;2022-08-24T18:55:11;0.50;;;0.50;;
10148;SDS011;5115;50.920;6.376;2022-08-24T18:57:38;0.50;;;0.50;;
10148;SDS011;5115;50.920;6.376;2022-08-24T19:00:04;0.50;;;0.50;;
10148;SDS011;5115;50.920;6.376;2022-08-24T19:02:31;0.50;;;0.50;;
10148;SDS011;5115;50.920;6.376;2022-08-24T19:05:07;0.50;;;0.50;;
10148;SDS011;5115;50.920;6.376;2022-08-24T19:07:38;0.50;;;0.50;;
10148;SDS011;5115;50.920;6.376;2022-08-24T19:10:09;0.50;;;0.50;;
10148;SDS011;5115;50.920;6.376;2022-08-24T19:12:40;0.50;;;0.50;;
10148;SDS011;5115;50.920;6.376;2022-08-24T19:15:08;0.40;;;0.40;;